Time,TemperatureF,DewpointF,PressureIn,WindDirection,WindDirectionDegrees,WindSpeedMPH,WindSpeedGustMPH,Humidity,HourlyPrecipIn,Conditions,Clouds,dailyrainin,SoftwareType,DateUTC
2013-09-24 00:04:00,70.0,47.1,29.88,WSW,248,3.4,3.6,44,0.00,,---,0.00,VWS V14.01,2013-09-24 05:04:00,
2013-09-24 00:09:00,69.8,46.9,29.91,WSW,248,0.0,2.2,44,0.00,,---,0.00,VWS V14.01,2013-09-24 05:09:00,
2013-09-24 00:14:00,69.6,47.4,29.91,WNW,292,0.0,1.6,45,0.00,,---,0.00,VWS V14.01,2013-09-24 05:14:00,
2013-09-24 00:19:00,69.4,47.2,29.91,WNW,292,0.0,1.3,45,0.00,,---,0.00,VWS V14.01,2013-09-24 05:19:00,
2013-09-24 00:24:00,69.3,47.0,29.88,West,270,0.0,4.9,45,0.00,,---,0.00,VWS V14.01,2013-09-24 05:24:00,
2013-09-24 00:29:00,69.1,46.9,29.88,West,270,0.9,5.6,45,0.00,,---,0.00,VWS V14.01,2013-09-24 05:29:00,
2013-09-24 00:34:00,68.9,47.3,29.88,West,270,0.0,3.1,46,0.00,,---,0.00,VWS V14.01,2013-09-24 05:34:00,
2013-09-24 00:39:00,68.5,47.0,29.91,NW,315,0.0,2.5,46,0.00,,---,0.00,VWS V14.01,2013-09-24 05:39:00,
2013-09-24 00:44:00,68.2,46.6,29.91,WNW,292,0.0,0.0,46,0.00,,---,0.00,VWS V14.01,2013-09-24 05:44:00,
2013-09-24 00:49:00,68.0,47.0,29.91,WNW,292,0.0,3.1,47,0.00,,---,0.00,VWS V14.01,2013-09-24 05:49:00,
2013-09-24 00:54:00,67.8,47.4,29.91,West,270,5.4,5.4,48,0.00,,---,0.00,VWS V14.01,2013-09-24 05:54:00,
2013-09-24 00:59:00,67.6,47.3,29.91,NW,315,0.0,2.2,48,0.00,,---,0.00,VWS V14.01,2013-09-24 05:59:00,
2013-09-24 01:04:00,67.6,47.8,29.91,SSW,202,0.0,5.8,49,0.00,,---,0.00,VWS V14.01,2013-09-24 06:04:00,
2013-09-24 01:09:00,67.3,47.5,29.91,WNW,292,2.0,3.6,49,0.00,,---,0.00,VWS V14.01,2013-09-24 06:09:00,
2013-09-24 01:14:00,67.1,47.9,29.91,WNW,292,0.0,1.1,50,0.00,,---,0.00,VWS V14.01,2013-09-24 06:14:00,
2013-09-24 01:19:00,67.1,47.9,29.91,WSW,248,2.5,5.4,50,0.00,,---,0.00,VWS V14.01,2013-09-24 06:19:00,
2013-09-24 01:24:00,66.9,48.2,29.91,NW,315,0.0,0.9,51,0.00,,---,0.00,VWS V14.01,2013-09-24 06:24:00,
2013-09-24 01:29:00,66.6,47.9,29.91,NW,315,1.6,1.6,51,0.00,,---,0.00,VWS V14.01,2013-09-24 06:29:00,
2013-09-24 01:34:00,66.4,48.2,29.91,NW,315,0.0,1.6,52,0.00,,---,0.00,VWS V14.01,2013-09-24 06:34:00,
2013-09-24 01:39:00,66.4,48.2,29.91,West,270,0.0,2.7,52,0.00,,---,0.00,VWS V14.01,2013-09-24 06:39:00,
2013-09-24 01:44:00,66.2,48.6,29.91,NW,315,0.0,6.5,53,0.00,,---,0.00,VWS V14.01,2013-09-24 06:44:00,
2013-09-24 01:49:00,66.0,48.4,29.91,NNW,338,1.6,3.1,53,0.00,,---,0.00,VWS V14.01,2013-09-24 06:49:00,
2013-09-24 01:54:00,65.8,48.8,29.91,WNW,292,10.1,10.1,54,0.00,,---,0.00,VWS V14.01,2013-09-24 06:54:00,
2013-09-24 01:59:00,65.8,48.8,29.91,West,270,2.7,2.9,54,0.00,,---,0.00,VWS V14.01,2013-09-24 06:59:00,
2013-09-24 02:04:00,65.7,48.6,29.91,NW,315,1.3,1.3,54,0.00,,---,0.00,VWS V14.01,2013-09-24 07:04:00,
2013-09-24 02:09:00,65.3,48.2,29.91,North,0,3.1,3.1,54,0.00,,---,0.00,VWS V14.01,2013-09-24 07:09:00,
2013-09-24 02:14:00,65.1,48.1,29.91,South,180,0.0,4.0,54,0.00,,---,0.00,VWS V14.01,2013-09-24 07:14:00,
2013-09-24 02:19:00,65.1,48.1,29.91,NW,315,3.1,3.1,54,0.00,,---,0.00,VWS V14.01,2013-09-24 07:19:00,
2013-09-24 02:24:00,64.8,47.8,29.91,NW,315,0.0,0.0,54,0.00,,---,0.00,VWS V14.01,2013-09-24 07:24:00,
2013-09-24 02:29:00,64.6,48.1,29.91,NW,315,0.0,2.9,55,0.00,,---,0.00,VWS V14.01,2013-09-24 07:29:00,
2013-09-24 02:35:00,64.2,48.2,29.91,NW,315,0.9,1.6,56,0.00,,---,0.00,VWS V14.01,2013-09-24 07:35:00,
2013-09-24 02:40:00,64.2,48.7,29.91,West,270,2.5,3.4,57,0.00,,---,0.00,VWS V14.01,2013-09-24 07:40:00,
2013-09-24 02:45:00,64.0,49.0,29.91,North,0,4.7,4.7,58,0.00,,---,0.00,VWS V14.01,2013-09-24 07:45:00,
2013-09-24 02:50:00,63.9,48.8,29.91,NW,315,0.0,3.8,58,0.00,,---,0.00,VWS V14.01,2013-09-24 07:50:00,
2013-09-24 02:55:00,63.9,49.3,29.88,WNW,292,0.0,2.2,59,0.00,,---,0.00,VWS V14.01,2013-09-24 07:55:00,
2013-09-24 03:00:00,63.5,48.9,29.88,NW,315,0.0,0.0,59,0.00,,---,0.00,VWS V14.01,2013-09-24 08:00:00,
2013-09-24 03:05:00,63.3,48.8,29.88,WNW,292,0.0,2.5,59,0.00,,---,0.00,VWS V14.01,2013-09-24 08:05:00,
2013-09-24 03:10:00,63.1,49.0,29.91,NW,315,4.0,4.0,60,0.00,,---,0.00,VWS V14.01,2013-09-24 08:10:00,
2013-09-24 03:15:00,63.0,48.9,29.91,West,270,0.0,0.0,60,0.00,,---,0.00,VWS V14.01,2013-09-24 08:15:00,
2013-09-24 03:20:00,62.6,49.0,29.91,West,270,0.0,4.3,61,0.00,,---,0.00,VWS V14.01,2013-09-24 08:20:00,
2013-09-24 03:25:00,62.6,49.0,29.91,NW,315,0.0,4.9,61,0.00,,---,0.00,VWS V14.01,2013-09-24 08:25:00,
2013-09-24 03:30:00,62.6,49.0,29.91,WNW,292,0.0,3.4,61,0.00,,---,0.00,VWS V14.01,2013-09-24 08:30:00,
2013-09-24 03:35:00,62.6,49.0,29.91,WSW,248,3.4,4.0,61,0.00,,---,0.00,VWS V14.01,2013-09-24 08:35:00,
2013-09-24 03:40:00,62.6,49.0,29.88,South,180,0.0,0.9,61,0.00,,---,0.00,VWS V14.01,2013-09-24 08:40:00,
2013-09-24 03:45:00,62.1,49.8,29.88,NNE,22,2.7,4.5,64,0.00,,---,0.00,VWS V14.01,2013-09-24 08:45:00,
2013-09-24 03:50:00,61.9,49.6,29.88,WNW,292,0.0,1.6,64,0.00,,---,0.00,VWS V14.01,2013-09-24 08:50:00,
2013-09-24 03:55:00,61.9,49.6,29.91,WNW,292,2.5,8.5,64,0.00,,---,0.00,VWS V14.01,2013-09-24 08:55:00,
2013-09-24 04:00:00,61.5,49.2,29.91,NW,315,0.0,0.0,64,0.00,,---,0.00,VWS V14.01,2013-09-24 09:00:00,
2013-09-24 04:05:00,61.3,49.5,29.91,North,0,0.0,0.0,65,0.00,,---,0.00,VWS V14.01,2013-09-24 09:05:00,
2013-09-24 04:10:00,61.2,49.7,29.91,NW,315,0.0,1.3,66,0.00,,---,0.00,VWS V14.01,2013-09-24 09:10:00,
2013-09-24 04:15:00,61.2,50.1,29.91,West,270,3.1,3.1,67,0.00,,---,0.00,VWS V14.01,2013-09-24 09:15:00,
2013-09-24 04:21:00,61.2,50.1,29.91,WNW,292,2.2,3.1,67,0.00,,---,0.00,VWS V14.01,2013-09-24 09:21:00,
2013-09-24 04:26:00,61.0,50.0,29.91,WNW,292,0.0,1.6,67,0.00,,---,0.00,VWS V14.01,2013-09-24 09:26:00,
2013-09-24 04:32:00,60.6,50.0,15.18,NE,45,0.0,1.1,68,0.00,,---,0.00,VWS V14.01,2013-09-24 09:32:00,
2013-09-24 04:37:00,60.6,50.4,15.18,NW,315,0.0,3.6,69,0.00,,---,0.00,VWS V14.01,2013-09-24 09:37:00,
2013-09-24 04:42:00,60.6,50.4,29.91,West,270,0.0,0.0,69,0.00,,---,0.00,VWS V14.01,2013-09-24 09:42:00,
2013-09-24 04:47:00,61.0,50.8,29.91,NW,315,4.9,4.9,69,0.00,,---,0.00,VWS V14.01,2013-09-24 09:47:00,
2013-09-24 04:53:00,61.0,50.8,29.91,NW,315,1.6,2.2,69,0.00,,---,0.00,VWS V14.01,2013-09-24 09:53:00,
2013-09-24 04:58:00,61.0,50.8,29.91,West,270,0.0,4.3,69,0.00,,---,0.00,VWS V14.01,2013-09-24 09:58:00,
2013-09-24 05:03:00,61.0,50.8,29.91,NE,45,0.0,3.1,69,0.00,,---,0.00,VWS V14.01,2013-09-24 10:03:00,
2013-09-24 05:08:00,61.0,50.8,29.91,NNW,338,6.3,6.3,69,0.00,,---,0.00,VWS V14.01,2013-09-24 10:08:00,
2013-09-24 05:13:00,61.0,50.8,29.91,NW,315,0.0,4.5,69,0.00,,---,0.00,VWS V14.01,2013-09-24 10:13:00,
2013-09-24 05:18:00,61.0,50.8,29.91,NW,315,0.0,0.0,69,0.00,,---,0.00,VWS V14.01,2013-09-24 10:18:00,
2013-09-24 05:23:00,61.0,50.8,29.91,WSW,248,1.3,5.6,69,0.00,,---,0.00,VWS V14.01,2013-09-24 10:23:00,
2013-09-24 05:28:00,60.8,50.6,29.91,NW,315,4.3,4.3,69,0.00,,---,0.00,VWS V14.01,2013-09-24 10:28:00,
2013-09-24 05:34:00,60.8,50.6,29.91,West,270,0.0,3.1,69,0.00,,---,0.00,VWS V14.01,2013-09-24 10:34:00,
2013-09-24 05:39:00,60.6,50.8,29.94,WNW,292,0.0,0.0,70,0.00,,---,0.00,VWS V14.01,2013-09-24 10:39:00,
2013-09-24 05:45:00,60.4,50.6,29.94,NW,315,0.0,0.0,70,0.00,,---,0.00,VWS V14.01,2013-09-24 10:45:00,
2013-09-24 05:50:00,60.4,50.6,29.94,NNW,338,0.0,0.0,70,0.00,,---,0.00,VWS V14.01,2013-09-24 10:50:00,
2013-09-24 05:55:00,60.4,50.6,29.94,NW,315,2.7,3.8,70,0.00,,---,0.00,VWS V14.01,2013-09-24 10:55:00,
2013-09-24 06:00:00,60.3,50.5,29.94,North,0,3.4,3.4,70,0.00,,---,0.00,VWS V14.01,2013-09-24 11:00:00,
2013-09-24 06:06:00,60.1,50.3,29.94,WNW,292,0.9,1.1,70,0.00,,---,0.00,VWS V14.01,2013-09-24 11:06:00,
2013-09-24 06:11:00,60.1,50.3,29.94,NNW,338,0.0,2.0,70,0.00,,---,0.00,VWS V14.01,2013-09-24 11:11:00,
2013-09-24 06:16:00,59.7,49.9,29.94,SSW,202,0.0,0.0,70,0.00,,---,0.00,VWS V14.01,2013-09-24 11:16:00,
2013-09-24 06:21:00,59.7,50.3,29.94,WNW,292,2.0,2.0,71,0.00,,---,0.00,VWS V14.01,2013-09-24 11:21:00,
2013-09-24 06:26:00,59.7,50.3,29.94,NNW,338,2.9,2.9,71,0.00,,---,0.00,VWS V14.01,2013-09-24 11:26:00,
2013-09-24 06:31:00,59.7,50.3,29.94,NNW,338,3.1,3.1,71,0.00,,---,0.00,VWS V14.01,2013-09-24 11:31:00,
2013-09-24 06:37:00,59.5,50.1,29.94,NNW,338,0.9,0.9,71,0.00,,---,0.00,VWS V14.01,2013-09-24 11:37:00,
2013-09-24 06:42:00,59.5,50.1,29.97,NW,315,0.0,3.6,71,0.00,,---,0.00,VWS V14.01,2013-09-24 11:42:00,
2013-09-24 06:47:00,59.5,50.1,29.97,NNW,338,0.0,0.0,71,0.00,,---,0.00,VWS V14.01,2013-09-24 11:47:00,
2013-09-24 06:52:00,59.4,50.0,29.97,NNE,22,1.6,1.6,71,0.00,,---,0.00,VWS V14.01,2013-09-24 11:52:00,
2013-09-24 06:58:00,59.4,50.0,29.97,West,270,2.0,3.1,71,0.00,,---,0.00,VWS V14.01,2013-09-24 11:58:00,
2013-09-24 07:04:00,59.4,50.0,29.97,West,270,4.0,4.0,71,0.00,,---,0.00,VWS V14.01,2013-09-24 12:04:00,
2013-09-24 07:09:00,59.4,50.0,29.97,NW,315,4.3,4.3,71,0.00,,---,0.00,VWS V14.01,2013-09-24 12:09:00,
2013-09-24 07:14:00,59.5,50.1,29.97,NW,315,1.6,3.6,71,0.00,,---,0.00,VWS V14.01,2013-09-24 12:14:00,
2013-09-24 07:20:00,59.4,50.0,29.97,NW,315,2.0,2.0,71,0.00,,---,0.00,VWS V14.01,2013-09-24 12:20:00,
2013-09-24 07:26:00,59.5,49.8,29.97,NW,315,0.9,7.2,70,0.00,,---,0.00,VWS V14.01,2013-09-24 12:26:00,
2013-09-24 07:32:00,59.7,49.9,29.97,WNW,292,3.1,3.1,70,0.00,,---,0.00,VWS V14.01,2013-09-24 12:32:00,
2013-09-24 07:37:00,59.7,49.9,29.97,NNW,338,0.9,5.8,70,0.00,,---,0.00,VWS V14.01,2013-09-24 12:37:00,
2013-09-24 07:42:00,59.9,49.7,29.97,NW,315,3.8,4.7,69,0.00,,---,0.00,VWS V14.01,2013-09-24 12:42:00,
2013-09-24 07:47:00,60.1,49.9,29.97,NW,315,0.0,5.4,69,0.00,,---,0.00,VWS V14.01,2013-09-24 12:47:00,
2013-09-24 07:52:00,60.8,50.2,29.97,North,0,4.3,4.3,68,0.00,,---,0.00,VWS V14.01,2013-09-24 12:52:00,
2013-09-24 07:58:00,61.7,50.2,29.97,NW,315,8.1,8.1,66,0.00,,---,0.00,VWS V14.01,2013-09-24 12:58:00,
2013-09-24 08:04:00,62.2,50.3,29.97,South,180,0.9,4.7,65,0.00,,---,0.00,VWS V14.01,2013-09-24 13:04:00,
2013-09-24 08:09:00,62.8,50.4,29.97,WNW,292,3.6,6.3,64,0.00,,---,0.00,VWS V14.01,2013-09-24 13:09:00,
2013-09-24 08:14:00,63.1,50.3,29.97,NW,315,0.0,1.6,63,0.00,,---,0.00,VWS V14.01,2013-09-24 13:14:00,
2013-09-24 08:19:00,63.7,50.4,29.97,NW,315,2.9,7.6,62,0.00,,---,0.00,VWS V14.01,2013-09-24 13:19:00,
2013-09-24 08:25:00,64.0,50.3,29.94,NNW,338,4.9,8.7,61,0.00,,---,0.00,VWS V14.01,2013-09-24 13:25:00,
2013-09-24 08:30:00,64.4,50.2,29.94,NW,315,2.9,7.6,60,0.00,,---,0.00,VWS V14.01,2013-09-24 13:30:00,
2013-09-24 08:36:00,64.4,49.8,29.94,NNW,338,5.4,6.0,59,0.00,,---,0.00,VWS V14.01,2013-09-24 13:36:00,
2013-09-24 08:41:00,64.4,49.8,29.97,West,270,2.9,7.6,59,0.00,,---,0.00,VWS V14.01,2013-09-24 13:41:00,
2013-09-24 08:46:00,64.9,50.3,29.97,North,0,4.0,6.0,59,0.00,,---,0.00,VWS V14.01,2013-09-24 13:46:00,
2013-09-24 08:51:00,65.3,50.6,29.97,North,0,3.8,4.9,59,0.00,,---,0.00,VWS V14.01,2013-09-24 13:51:00,
2013-09-24 08:56:00,65.7,51.0,29.97,North,0,2.2,10.3,59,0.00,,---,0.00,VWS V14.01,2013-09-24 13:56:00,
2013-09-24 09:02:00,65.7,50.5,29.97,NW,315,13.2,13.2,58,0.00,,---,0.00,VWS V14.01,2013-09-24 14:02:00,
2013-09-24 09:07:00,66.0,50.8,29.97,WNW,292,4.0,5.8,58,0.00,,---,0.00,VWS V14.01,2013-09-24 14:07:00,
2013-09-24 09:12:00,66.2,50.5,29.97,NNW,338,6.0,7.4,57,0.00,,---,0.00,VWS V14.01,2013-09-24 14:12:00,
2013-09-24 09:18:00,66.7,50.6,29.97,NW,315,6.0,6.0,56,0.00,,---,0.00,VWS V14.01,2013-09-24 14:18:00,
2013-09-24 09:23:00,67.5,51.7,29.97,NNW,338,5.8,5.8,57,0.00,,---,0.00,VWS V14.01,2013-09-24 14:23:00,
2013-09-24 09:29:00,67.6,50.9,29.97,WNW,292,6.3,8.1,55,0.00,,---,0.00,VWS V14.01,2013-09-24 14:29:00,
2013-09-24 09:34:00,68.0,51.2,29.97,NW,315,7.4,9.4,55,0.00,,---,0.00,VWS V14.01,2013-09-24 14:34:00,
2013-09-24 09:39:00,68.7,51.4,30.00,NNE,22,3.1,7.6,54,0.00,,---,0.00,VWS V14.01,2013-09-24 14:39:00,
2013-09-24 09:44:00,68.9,51.1,30.00,NNW,338,4.3,8.7,53,0.00,,---,0.00,VWS V14.01,2013-09-24 14:44:00,
2013-09-24 09:50:00,69.1,51.2,30.00,NNW,338,3.6,9.2,53,0.00,,---,0.00,VWS V14.01,2013-09-24 14:50:00,
2013-09-24 09:56:00,69.3,51.4,30.00,NW,315,8.5,10.5,53,0.00,,---,0.00,VWS V14.01,2013-09-24 14:56:00,
2013-09-24 10:01:00,69.8,51.4,30.00,North,0,8.1,8.1,52,0.00,,---,0.00,VWS V14.01,2013-09-24 15:01:00,
2013-09-24 10:06:00,70.5,52.1,30.00,NNE,22,4.0,8.7,52,0.00,,---,0.00,VWS V14.01,2013-09-24 15:06:00,
2013-09-24 10:12:00,70.3,51.4,30.00,North,0,5.8,10.1,51,0.00,,---,0.00,VWS V14.01,2013-09-24 15:12:00,
2013-09-24 10:18:00,70.5,51.0,30.00,NW,315,6.0,7.2,50,0.00,,---,0.00,VWS V14.01,2013-09-24 15:18:00,
2013-09-24 10:23:00,71.1,51.5,30.00,NNW,338,3.8,6.5,50,0.00,,---,0.00,VWS V14.01,2013-09-24 15:23:00,
2013-09-24 10:28:00,71.4,51.8,30.00,North,0,2.2,7.8,50,0.00,,---,0.00,VWS V14.01,2013-09-24 15:28:00,
2013-09-24 10:33:00,71.2,51.7,30.00,North,0,5.6,12.1,50,0.00,,---,0.00,VWS V14.01,2013-09-24 15:33:00,
2013-09-24 10:39:00,71.4,51.8,30.00,NNW,338,8.5,8.5,50,0.00,,---,0.00,VWS V14.01,2013-09-24 15:39:00,
2013-09-24 10:44:00,71.8,51.6,30.00,NNE,22,3.4,8.5,49,0.00,,---,0.00,VWS V14.01,2013-09-24 15:44:00,
2013-09-24 10:49:00,72.3,52.1,30.00,NNW,338,2.9,9.6,49,0.00,,---,0.00,VWS V14.01,2013-09-24 15:49:00,
2013-09-24 10:54:00,72.7,52.4,30.00,NW,315,2.5,4.3,49,0.00,,---,0.00,VWS V14.01,2013-09-24 15:54:00,
2013-09-24 11:00:00,72.7,51.9,30.00,NW,315,11.9,11.9,48,0.00,,---,0.00,VWS V14.01,2013-09-24 16:00:00,
2013-09-24 11:05:00,72.9,52.0,30.00,WNW,292,13.4,13.4,48,0.00,,---,0.00,VWS V14.01,2013-09-24 16:05:00,
2013-09-24 11:10:00,72.7,51.9,30.00,North,0,11.0,11.0,48,0.00,,---,0.00,VWS V14.01,2013-09-24 16:10:00,
2013-09-24 11:15:00,73.0,52.2,30.00,NW,315,8.5,12.3,48,0.00,,---,0.00,VWS V14.01,2013-09-24 16:15:00,
2013-09-24 11:21:00,73.9,52.5,30.00,North,0,7.4,12.1,47,0.00,,---,0.00,VWS V14.01,2013-09-24 16:21:00,
2013-09-24 11:26:00,74.3,52.8,30.00,North,0,6.0,8.1,47,0.00,,---,0.00,VWS V14.01,2013-09-24 16:26:00,
2013-09-24 11:31:00,74.3,52.2,30.00,WNW,292,6.3,8.5,46,0.00,,---,0.00,VWS V14.01,2013-09-24 16:31:00,
2013-09-24 11:36:00,75.0,52.9,30.00,NW,315,12.8,12.8,46,0.00,,---,0.00,VWS V14.01,2013-09-24 16:36:00,
2013-09-24 11:42:00,75.2,53.0,30.00,NNW,338,3.1,7.8,46,0.00,,---,0.00,VWS V14.01,2013-09-24 16:42:00,
2013-09-24 11:47:00,74.5,51.8,30.00,North,0,6.9,10.1,45,0.00,,---,0.00,VWS V14.01,2013-09-24 16:47:00,
2013-09-24 11:52:00,75.7,52.9,30.00,North,0,4.7,8.5,45,0.00,,---,0.00,VWS V14.01,2013-09-24 16:52:00,
2013-09-24 11:57:00,76.3,54.0,30.00,NNW,338,4.7,4.7,46,0.00,,---,0.00,VWS V14.01,2013-09-24 16:57:00,
2013-09-24 12:03:00,75.9,52.5,30.00,NW,315,3.1,6.5,44,0.00,,---,0.00,VWS V14.01,2013-09-24 17:03:00,
2013-09-24 12:08:00,76.3,53.4,30.00,NNW,338,5.8,8.1,45,0.00,,---,0.00,VWS V14.01,2013-09-24 17:08:00,
2013-09-24 12:13:00,76.3,53.4,30.00,NNW,338,3.8,6.3,45,0.00,,---,0.00,VWS V14.01,2013-09-24 17:13:00,
2013-09-24 12:18:00,76.3,53.4,30.00,NNW,338,4.5,4.5,45,0.00,,---,0.00,VWS V14.01,2013-09-24 17:18:00,
2013-09-24 12:24:00,76.6,53.1,30.00,NW,315,4.0,7.4,44,0.00,,---,0.00,VWS V14.01,2013-09-24 17:24:00,
2013-09-24 12:29:00,76.8,53.3,30.00,NNW,338,6.3,9.6,44,0.00,,---,0.00,VWS V14.01,2013-09-24 17:29:00,
2013-09-24 12:35:00,75.9,53.1,30.00,North,0,4.7,5.8,45,0.00,,---,0.00,VWS V14.01,2013-09-24 17:35:00,
2013-09-24 12:40:00,76.5,53.0,30.00,NW,315,6.5,6.7,44,0.00,,---,0.00,VWS V14.01,2013-09-24 17:40:00,
2013-09-24 12:45:00,77.0,53.4,30.00,North,0,1.6,7.6,44,0.00,,---,0.00,VWS V14.01,2013-09-24 17:45:00,
2013-09-24 12:50:00,75.7,52.3,30.00,North,0,6.0,7.6,44,0.00,,---,0.00,VWS V14.01,2013-09-24 17:50:00,
2013-09-24 12:55:00,77.5,53.9,30.00,NW,315,2.5,7.6,44,0.00,,---,0.00,VWS V14.01,2013-09-24 17:55:00,
2013-09-24 13:00:00,77.0,52.8,30.00,North,0,8.5,11.0,43,0.00,,---,0.00,VWS V14.01,2013-09-24 18:00:00,
2013-09-24 13:06:00,76.6,53.1,30.00,NW,315,7.8,10.5,44,0.00,,---,0.00,VWS V14.01,2013-09-24 18:06:00,
2013-09-24 13:11:00,77.9,53.6,30.00,NNE,22,2.7,7.6,43,0.00,,---,0.00,VWS V14.01,2013-09-24 18:11:00,
2013-09-24 13:16:00,79.3,54.3,30.00,WNW,292,8.1,8.7,42,0.00,,---,0.00,VWS V14.01,2013-09-24 18:16:00,
2013-09-24 13:21:00,78.8,53.8,30.00,WNW,292,8.7,8.7,42,0.00,,---,0.00,VWS V14.01,2013-09-24 18:21:00,
2013-09-24 13:27:00,78.3,53.3,30.00,NNW,338,7.8,7.8,42,0.00,,---,0.00,VWS V14.01,2013-09-24 18:27:00,
2013-09-24 13:32:00,79.3,54.3,30.00,North,0,0.0,9.6,42,0.00,,---,0.00,VWS V14.01,2013-09-24 18:32:00,
2013-09-24 13:37:00,78.3,53.3,30.00,NNW,338,6.0,11.4,42,0.00,,---,0.00,VWS V14.01,2013-09-24 18:37:00,
2013-09-24 13:43:00,79.5,53.8,30.00,North,0,6.0,10.7,41,0.00,,---,0.00,VWS V14.01,2013-09-24 18:43:00,
2013-09-24 13:48:00,78.6,53.6,30.00,West,270,2.7,10.7,42,0.00,,---,0.00,VWS V14.01,2013-09-24 18:48:00,
2013-09-24 13:53:00,79.7,53.9,30.00,NW,315,7.6,8.5,41,0.00,,---,0.00,VWS V14.01,2013-09-24 18:53:00,
2013-09-24 13:58:00,80.1,54.3,30.00,NNE,22,3.8,5.8,41,0.00,,---,0.00,VWS V14.01,2013-09-24 18:58:00,
2013-09-24 14:04:00,79.5,53.8,30.00,North,0,4.0,8.7,41,0.00,,---,0.00,VWS V14.01,2013-09-24 19:04:00,
2013-09-24 14:09:00,79.7,53.9,30.00,North,0,1.3,4.5,41,0.00,,---,0.00,VWS V14.01,2013-09-24 19:09:00,
2013-09-24 14:14:00,81.3,55.4,30.00,NW,315,0.9,4.3,41,0.00,,---,0.00,VWS V14.01,2013-09-24 19:14:00,
2013-09-24 14:19:00,82.2,55.5,30.00,North,0,8.1,9.0,40,0.00,,---,0.00,VWS V14.01,2013-09-24 19:19:00,
2013-09-24 14:24:00,82.6,55.1,30.00,North,0,3.4,4.3,39,0.00,,---,0.00,VWS V14.01,2013-09-24 19:24:00,
2013-09-24 14:29:00,81.3,54.7,30.00,NNE,22,0.0,3.8,40,0.00,,---,0.00,VWS V14.01,2013-09-24 19:29:00,
2013-09-24 14:34:00,80.2,53.8,30.00,North,0,5.4,6.3,40,0.00,,---,0.00,VWS V14.01,2013-09-24 19:34:00,
2013-09-24 14:39:00,80.1,53.6,30.00,WNW,292,6.5,6.5,40,0.00,,---,0.00,VWS V14.01,2013-09-24 19:39:00,
2013-09-24 14:45:00,80.4,53.9,30.00,NNW,338,3.1,10.7,40,0.00,,---,0.00,VWS V14.01,2013-09-24 19:45:00,
2013-09-24 14:51:00,80.4,53.9,30.00,North,0,6.3,6.5,40,0.00,,---,0.00,VWS V14.01,2013-09-24 19:51:00,
2013-09-24 14:56:00,79.9,53.4,30.00,North,0,1.1,10.3,40,0.00,,---,0.00,VWS V14.01,2013-09-24 19:56:00,
2013-09-24 15:01:00,80.6,53.4,30.00,North,0,9.6,9.6,39,0.00,,---,0.00,VWS V14.01,2013-09-24 20:01:00,
2013-09-24 15:06:00,81.5,54.2,30.00,North,0,4.9,4.9,39,0.00,,---,0.00,VWS V14.01,2013-09-24 20:06:00,
2013-09-24 15:12:00,81.1,53.9,30.00,North,0,4.5,10.7,39,0.00,,---,0.00,VWS V14.01,2013-09-24 20:12:00,
2013-09-24 15:17:00,80.4,53.9,30.00,North,0,2.7,6.5,40,0.00,,---,0.00,VWS V14.01,2013-09-24 20:17:00,
2013-09-24 15:22:00,79.5,53.1,30.00,NNW,338,5.4,5.4,40,0.00,,---,0.00,VWS V14.01,2013-09-24 20:22:00,
2013-09-24 15:27:00,79.5,53.1,30.00,North,0,0.9,12.5,40,0.00,,---,0.00,VWS V14.01,2013-09-24 20:27:00,
2013-09-24 15:33:00,81.0,53.7,30.00,NNE,22,3.1,8.5,39,0.00,,---,0.00,VWS V14.01,2013-09-24 20:33:00,
2013-09-24 15:38:00,79.9,53.4,30.00,North,0,8.1,10.3,40,0.00,,---,0.00,VWS V14.01,2013-09-24 20:38:00,
2013-09-24 15:43:00,79.2,52.8,29.97,North,0,0.0,7.4,40,0.00,,---,0.00,VWS V14.01,2013-09-24 20:43:00,
2013-09-24 15:48:00,79.3,53.0,29.97,North,0,7.6,10.3,40,0.00,,---,0.00,VWS V14.01,2013-09-24 20:48:00,
2013-09-24 15:54:00,79.3,53.0,30.00,NNW,338,5.8,5.8,40,0.00,,---,0.00,VWS V14.01,2013-09-24 20:54:00,
2013-09-24 15:59:00,80.2,53.8,30.00,NW,315,2.9,5.4,40,0.00,,---,0.00,VWS V14.01,2013-09-24 20:59:00,
2013-09-24 16:04:00,80.4,53.2,30.00,East,90,2.9,10.3,39,0.00,,---,0.00,VWS V14.01,2013-09-24 21:04:00,
2013-09-24 16:09:00,79.5,52.4,29.97,North,0,8.1,8.1,39,0.00,,---,0.00,VWS V14.01,2013-09-24 21:09:00,
2013-09-24 16:14:00,79.9,52.7,29.97,NW,315,6.5,7.8,39,0.00,,---,0.00,VWS V14.01,2013-09-24 21:14:00,
2013-09-24 16:20:00,80.4,53.2,29.97,NE,45,5.4,7.8,39,0.00,,---,0.00,VWS V14.01,2013-09-24 21:20:00,
2013-09-24 16:26:00,80.6,52.7,30.00,NNW,338,7.4,7.4,38,0.00,,---,0.00,VWS V14.01,2013-09-24 21:26:00,
2013-09-24 16:31:00,80.2,53.1,30.00,NNE,22,5.6,7.8,39,0.00,,---,0.00,VWS V14.01,2013-09-24 21:31:00,
2013-09-24 16:36:00,80.8,52.8,30.00,North,0,3.4,6.5,38,0.00,,---,0.00,VWS V14.01,2013-09-24 21:36:00,
2013-09-24 16:41:00,80.1,52.2,30.00,NNW,338,8.7,8.7,38,0.00,,---,0.00,VWS V14.01,2013-09-24 21:41:00,
2013-09-24 16:46:00,79.5,51.7,30.00,NNW,338,5.8,9.6,38,0.00,,---,0.00,VWS V14.01,2013-09-24 21:46:00,
2013-09-24 16:51:00,79.7,52.6,30.00,NW,315,4.7,4.7,39,0.00,,---,0.00,VWS V14.01,2013-09-24 21:51:00,
2013-09-24 16:57:00,80.1,52.2,29.97,North,0,7.6,8.7,38,0.00,,---,0.00,VWS V14.01,2013-09-24 21:57:00,
2013-09-24 17:02:00,79.5,51.7,29.97,North,0,5.4,5.4,38,0.00,,---,0.00,VWS V14.01,2013-09-24 22:02:00,
2013-09-24 17:07:00,79.9,52.0,29.97,NW,315,4.0,6.5,38,0.00,,---,0.00,VWS V14.01,2013-09-24 22:07:00,
2013-09-24 17:13:00,79.7,51.9,29.97,North,0,5.4,9.8,38,0.00,,---,0.00,VWS V14.01,2013-09-24 22:13:00,
2013-09-24 17:18:00,79.3,52.3,29.97,North,0,4.9,4.9,39,0.00,,---,0.00,VWS V14.01,2013-09-24 22:18:00,
2013-09-24 17:23:00,79.2,52.1,29.97,NNE,22,0.9,3.8,39,0.00,,---,0.00,VWS V14.01,2013-09-24 22:23:00,
2013-09-24 17:28:00,79.2,52.1,29.97,North,0,2.5,4.3,39,0.00,,---,0.00,VWS V14.01,2013-09-24 22:28:00,
2013-09-24 17:33:00,78.6,52.3,29.97,NE,45,2.7,6.0,40,0.00,,---,0.00,VWS V14.01,2013-09-24 22:33:00,
2013-09-24 17:39:00,78.3,52.0,30.00,NNE,22,2.9,5.6,40,0.00,,---,0.00,VWS V14.01,2013-09-24 22:39:00,
2013-09-24 17:44:00,78.3,52.0,30.00,North,0,0.0,6.0,40,0.00,,---,0.00,VWS V14.01,2013-09-24 22:44:00,
2013-09-24 17:49:00,77.7,51.5,30.00,North,0,0.9,8.5,40,0.00,,---,0.00,VWS V14.01,2013-09-24 22:49:00,
2013-09-24 17:54:00,77.5,51.3,30.00,North,0,0.0,3.1,40,0.00,,---,0.00,VWS V14.01,2013-09-24 22:54:00,
2013-09-24 18:00:00,77.0,50.9,30.00,North,0,2.0,6.9,40,0.00,,---,0.00,VWS V14.01,2013-09-24 23:00:00,
2013-09-24 18:05:00,77.2,51.0,30.00,NE,45,6.5,6.5,40,0.00,,---,0.00,VWS V14.01,2013-09-24 23:05:00,
2013-09-24 18:10:00,76.6,51.2,30.00,ENE,68,9.8,9.8,41,0.00,,---,0.00,VWS V14.01,2013-09-24 23:10:00,
2013-09-24 18:15:00,76.5,51.0,30.00,North,0,3.6,3.8,41,0.00,,---,0.00,VWS V14.01,2013-09-24 23:15:00,
2013-09-24 18:21:00,75.7,50.4,30.00,North,0,3.1,4.7,41,0.00,,---,0.00,VWS V14.01,2013-09-24 23:21:00,
2013-09-24 18:27:00,75.0,50.4,30.00,NNE,22,3.4,5.8,42,0.00,,---,0.00,VWS V14.01,2013-09-24 23:27:00,
2013-09-24 18:32:00,74.5,49.9,30.00,North,0,3.6,6.3,42,0.00,,---,0.00,VWS V14.01,2013-09-24 23:32:00,
2013-09-24 18:38:00,73.9,50.1,30.00,North,0,0.0,3.1,43,0.00,,---,0.00,VWS V14.01,2013-09-24 23:38:00,
2013-09-24 18:43:00,73.6,49.7,29.97,North,0,2.0,6.0,43,0.00,,---,0.00,VWS V14.01,2013-09-24 23:43:00,
2013-09-24 18:49:00,73.2,50.0,29.97,NNW,338,0.0,3.4,44,0.00,,---,0.00,VWS V14.01,2013-09-24 23:49:00,
2013-09-24 18:54:00,72.9,49.7,30.00,North,0,2.5,2.7,44,0.00,,---,0.00,VWS V14.01,2013-09-24 23:54:00,
2013-09-24 18:59:00,72.7,50.1,30.00,North,0,1.1,3.6,45,0.00,,---,0.00,VWS V14.01,2013-09-24 23:59:00,
2013-09-24 19:04:00,72.3,49.8,30.00,NE,45,0.0,4.7,45,0.00,,---,0.00,VWS V14.01,2013-09-25 00:04:00,
2013-09-24 19:10:00,72.0,50.1,30.00,NE,45,0.0,0.0,46,0.00,,---,0.00,VWS V14.01,2013-09-25 00:10:00,
2013-09-24 19:15:00,71.4,50.2,30.00,NW,315,0.0,0.0,47,0.00,,---,0.00,VWS V14.01,2013-09-25 00:15:00,
2013-09-24 19:20:00,71.2,50.0,30.00,North,0,0.0,0.0,47,0.00,,---,0.00,VWS V14.01,2013-09-25 00:20:00,
2013-09-24 19:25:00,70.9,50.2,30.00,NNW,338,0.0,0.0,48,0.00,,---,0.00,VWS V14.01,2013-09-25 00:25:00,
2013-09-24 19:31:00,70.3,50.3,30.00,NNW,338,0.0,0.0,49,0.00,,---,0.00,VWS V14.01,2013-09-25 00:31:00,
2013-09-24 19:36:00,70.0,50.0,30.00,North,0,0.0,0.0,49,0.00,,---,0.00,VWS V14.01,2013-09-25 00:36:00,
2013-09-24 19:41:00,69.6,50.7,30.00,NNW,338,0.0,0.0,51,0.00,,---,0.00,VWS V14.01,2013-09-25 00:41:00,
2013-09-24 19:46:00,69.3,50.4,30.00,North,0,0.0,0.0,51,0.00,,---,0.00,VWS V14.01,2013-09-25 00:46:00,
2013-09-24 19:52:00,68.9,50.0,30.00,North,0,0.0,0.0,51,0.00,,---,0.00,VWS V14.01,2013-09-25 00:52:00,
2013-09-24 19:57:00,68.4,50.1,30.00,North,0,0.0,0.0,52,0.00,,---,0.00,VWS V14.01,2013-09-25 00:57:00,
2013-09-24 20:02:00,68.0,50.8,30.00,North,0,0.0,0.0,54,0.00,,---,0.00,VWS V14.01,2013-09-25 01:02:00,
2013-09-24 20:07:00,67.8,51.1,30.00,North,0,2.9,2.9,55,0.00,,---,0.00,VWS V14.01,2013-09-25 01:07:00,
2013-09-24 20:13:00,67.5,51.2,30.00,North,0,0.0,0.0,56,0.00,,---,0.00,VWS V14.01,2013-09-25 01:13:00,
2013-09-24 20:18:00,67.1,50.9,30.00,North,0,0.0,0.0,56,0.00,,---,0.00,VWS V14.01,2013-09-25 01:18:00,
2013-09-24 20:24:00,66.9,51.7,30.00,North,0,0.0,2.5,58,0.00,,---,0.00,VWS V14.01,2013-09-25 01:24:00,
2013-09-24 20:29:00,66.7,52.0,30.00,NNE,22,2.0,2.7,59,0.00,,---,0.00,VWS V14.01,2013-09-25 01:29:00,
2013-09-24 20:34:00,66.6,52.7,30.00,NNE,22,3.6,3.6,61,0.00,,---,0.00,VWS V14.01,2013-09-25 01:34:00,
2013-09-24 20:39:00,66.4,52.1,30.00,NE,45,0.0,0.0,60,0.00,,---,0.00,VWS V14.01,2013-09-25 01:39:00,
2013-09-24 20:44:00,66.2,51.9,30.00,NE,45,0.0,2.0,60,0.00,,---,0.00,VWS V14.01,2013-09-25 01:44:00,
2013-09-24 20:50:00,65.8,52.0,30.00,NE,45,0.0,0.0,61,0.00,,---,0.00,VWS V14.01,2013-09-25 01:50:00,
2013-09-24 20:55:00,65.5,51.7,30.00,NE,45,0.0,0.0,61,0.00,,---,0.00,VWS V14.01,2013-09-25 01:55:00,
2013-09-24 21:00:00,65.3,52.4,30.00,NE,45,0.0,0.0,63,0.00,,---,0.00,VWS V14.01,2013-09-25 02:00:00,
2013-09-24 21:05:00,64.8,52.3,30.00,NE,45,0.0,0.0,64,0.00,,---,0.00,VWS V14.01,2013-09-25 02:05:00,
2013-09-24 21:10:00,64.0,52.9,30.00,NE,45,0.0,0.0,67,0.00,,---,0.00,VWS V14.01,2013-09-25 02:10:00,
2013-09-24 21:16:00,63.7,52.5,30.00,ENE,68,0.0,0.0,67,0.00,,---,0.00,VWS V14.01,2013-09-25 02:16:00,
2013-09-24 21:21:00,63.7,52.9,30.00,NE,45,0.0,0.0,68,0.00,,---,0.00,VWS V14.01,2013-09-25 02:21:00,
2013-09-24 21:26:00,63.9,53.1,30.00,NE,45,0.0,0.0,68,0.00,,---,0.00,VWS V14.01,2013-09-25 02:26:00,
2013-09-24 21:31:00,63.9,53.1,30.00,NNE,22,0.0,0.0,68,0.00,,---,0.00,VWS V14.01,2013-09-25 02:31:00,
2013-09-24 21:37:00,63.5,52.8,30.00,NNE,22,0.0,0.0,68,0.00,,---,0.00,VWS V14.01,2013-09-25 02:37:00,
2013-09-24 21:42:00,63.1,52.0,30.03,NNE,22,0.0,0.0,67,0.00,,---,0.00,VWS V14.01,2013-09-25 02:42:00,
2013-09-24 21:47:00,62.6,51.9,30.03,NNE,22,0.0,0.0,68,0.00,,---,0.00,VWS V14.01,2013-09-25 02:47:00,
2013-09-24 21:52:00,62.4,52.5,30.03,NNE,22,0.0,0.0,70,0.00,,---,0.00,VWS V14.01,2013-09-25 02:52:00,
2013-09-24 21:58:00,61.7,52.6,30.03,NNE,22,0.0,0.0,72,0.00,,---,0.00,VWS V14.01,2013-09-25 02:58:00,
2013-09-24 22:04:00,61.0,52.3,30.03,NNE,22,0.0,0.0,73,0.00,,---,0.00,VWS V14.01,2013-09-25 03:04:00,
2013-09-24 22:09:00,60.4,52.1,30.03,NNE,22,0.0,0.0,74,0.00,,---,0.00,VWS V14.01,2013-09-25 03:09:00,
2013-09-24 22:15:00,60.4,51.8,30.03,NE,45,0.0,0.0,73,0.00,,---,0.00,VWS V14.01,2013-09-25 03:15:00,
2013-09-24 22:20:00,60.1,51.8,30.03,NE,45,0.0,0.0,74,0.00,,---,0.00,VWS V14.01,2013-09-25 03:20:00,
2013-09-24 22:26:00,60.1,52.5,30.00,NNE,22,0.0,0.0,76,0.00,,---,0.00,VWS V14.01,2013-09-25 03:26:00,
2013-09-24 22:31:00,59.9,52.3,30.00,NNE,22,0.0,0.0,76,0.00,,---,0.00,VWS V14.01,2013-09-25 03:31:00,
2013-09-24 22:36:00,59.7,52.2,30.00,NNE,22,0.0,0.0,76,0.00,,---,0.00,VWS V14.01,2013-09-25 03:36:00,
2013-09-24 22:41:00,59.5,52.3,30.03,North,0,0.0,0.0,77,0.00,,---,0.00,VWS V14.01,2013-09-25 03:41:00,
2013-09-24 22:47:00,59.4,52.5,30.03,North,0,0.0,0.0,78,0.00,,---,0.00,VWS V14.01,2013-09-25 03:47:00,
2013-09-24 22:52:00,59.2,52.7,30.03,North,0,0.0,0.0,79,0.00,,---,0.00,VWS V14.01,2013-09-25 03:52:00,
2013-09-24 22:57:00,58.8,52.3,30.00,North,0,0.0,0.0,79,0.00,,---,0.00,VWS V14.01,2013-09-25 03:57:00,
2013-09-24 23:01:00,58.8,52.7,30.00,North,0,0.0,0.0,80,0.00,,---,0.00,VWS V14.01,2013-09-25 04:01:00,
2013-09-24 23:02:00,58.8,52.3,30.00,North,0,0.0,0.0,79,0.00,,---,0.00,VWS V14.01,2013-09-25 04:02:00,
2013-09-24 23:05:00,58.8,52.7,30.00,North,0,0.0,0.0,80,0.00,,---,0.00,VWS V14.01,2013-09-25 04:05:00,
2013-09-24 23:06:00,58.6,52.5,30.00,North,0,0.0,0.0,80,0.00,,---,0.00,VWS V14.01,2013-09-25 04:06:00,
2013-09-24 23:11:00,58.5,52.7,30.00,North,0,0.0,0.0,81,0.00,,---,0.00,VWS V14.01,2013-09-25 04:11:00,
2013-09-24 23:16:00,58.3,52.8,30.00,North,0,0.0,0.0,82,0.00,,---,0.00,VWS V14.01,2013-09-25 04:16:00,
2013-09-24 23:22:00,57.9,52.5,30.00,North,0,0.0,0.0,82,0.00,,---,0.00,VWS V14.01,2013-09-25 04:22:00,
2013-09-24 23:27:00,57.9,52.5,30.03,North,0,0.0,0.0,82,0.00,,---,0.00,VWS V14.01,2013-09-25 04:27:00,
2013-09-24 23:32:00,57.7,52.0,30.03,North,0,0.0,0.0,81,0.00,,---,0.00,VWS V14.01,2013-09-25 04:32:00,
2013-09-24 23:37:00,57.7,53.0,30.03,North,0,0.0,0.0,84,0.00,,---,0.00,VWS V14.01,2013-09-25 04:37:00,
2013-09-24 23:42:00,57.6,52.8,30.00,North,0,0.0,0.0,84,0.00,,---,0.00,VWS V14.01,2013-09-25 04:42:00,
2013-09-24 23:47:00,57.2,52.4,30.00,North,0,0.0,0.0,84,0.00,,---,0.00,VWS V14.01,2013-09-25 04:47:00,
2013-09-24 23:52:00,57.0,52.6,30.00,North,0,0.0,0.0,85,0.00,,---,0.00,VWS V14.01,2013-09-25 04:52:00,
2013-09-24 23:57:00,57.2,52.4,30.00,North,0,0.0,0.0,84,0.00,,---,0.00,VWS V14.01,2013-09-25 04:57:00,